.
WxDataArchive / Data Records for 2012-07-05
2012-07-04 July 2012 2012-07-06

Data Records for Thursday, 05 July 2012

Time	Temp	Chill	HIndex	Humid	Dewpt	 Wind 	HiWind	WindDir	Rain 	Barom 
-----	----	-----	------	-----	-----	------	------	-------	-----	----- 
00:00	86.5	86.5	91.3	58	69.9	0	1	270	0.00	29.847 
00:05	86.5	86.5	91.3	58	69.9	0	1	270	0.00	29.847 
00:10	86.5	86.5	91.3	58	69.9	0	1	270	0.00	29.847 
00:15	86.5	86.5	91.3	58	69.9	0	1	270	0.00	29.847 
00:20	86.5	86.5	91.7	59	70.4	0	0	---	0.00	29.847 
00:25	86.3	86.3	91.3	59	70.2	0	1	270	0.00	29.847 
00:30	86.1	86.1	91.3	60	70.6	0	0	---	0.00	29.858 
00:35	85.9	85.9	91.3	61	70.9	0	0	---	0.00	29.858 
00:40	85.7	85.7	90.9	61	70.7	0	0	---	0.00	29.858 
00:45	85.5	85.5	90.8	62	71.0	0	0	---	0.00	29.861 
00:50	85.3	85.3	90.5	62	70.8	0	0	---	0.00	29.861 
00:55	84.9	84.9	90.0	63	70.9	0	0	---	0.00	29.861 
01:00	84.7	84.7	90.0	64	71.1	0	0	---	0.00	29.865 
01:05	84.5	84.5	89.6	64	71.0	0	0	---	0.00	29.865 
01:10	84.1	84.1	89.1	65	71.0	0	0	---	0.00	29.865 
01:15	84.1	84.1	89.4	66	71.5	0	0	---	0.00	29.861 
01:20	84.1	84.1	89.4	66	71.5	0	0	---	0.00	29.861 
01:25	84.1	84.1	89.4	66	71.5	0	0	---	0.00	29.861 
01:30	84.0	84.0	89.5	67	71.8	0	0	---	0.00	29.860 
01:35	84.0	84.0	89.5	67	71.8	0	0	---	0.00	29.860 
01:40	83.8	83.8	89.4	68	72.1	0	0	---	0.00	29.860 
01:45	83.6	83.6	89.0	68	71.9	0	0	---	0.00	29.860 
01:50	83.4	83.4	88.9	69	72.1	0	0	---	0.00	29.860 
01:55	83.4	83.4	88.9	69	72.1	0	0	---	0.00	29.860 
02:00	83.4	83.4	88.9	69	72.1	0	0	---	0.00	29.858 
02:05	83.6	83.6	89.3	69	72.3	0	0	---	0.00	29.858 
02:10	83.6	83.6	89.3	69	72.3	0	0	---	0.00	29.858 
02:15	83.6	83.6	89.0	68	71.9	0	0	---	0.00	29.854 
02:20	83.8	83.8	89.4	68	72.1	0	1	270	0.00	29.854 
02:25	84.0	84.0	89.8	68	72.3	0	1	270	0.00	29.854 
02:30	84.0	84.0	89.5	67	71.8	0	1	270	0.00	29.848 
02:35	84.0	84.0	89.5	67	71.8	0	1	270	0.00	29.848 
02:40	84.0	84.0	89.5	67	71.8	0	1	270	0.00	29.848 
02:45	84.0	84.0	89.5	67	71.8	0	1	270	0.00	29.851 
02:50	84.0	84.0	89.5	67	71.8	0	1	270	0.00	29.851 
02:55	84.0	84.0	89.2	66	71.4	0	1	270	0.00	29.851 
03:00	84.0	84.0	89.2	66	71.4	0	1	270	0.00	29.855 
03:05	84.0	84.0	89.2	66	71.4	0	1	270	0.00	29.855 
03:10	84.0	84.0	89.2	66	71.4	0	0	---	0.00	29.855 
03:15	83.8	83.8	88.8	66	71.2	0	0	---	0.00	29.858 
03:20	83.6	83.6	88.5	66	71.0	0	0	---	0.00	29.858 
03:25	83.4	83.4	88.4	67	71.3	0	0	---	0.00	29.858 
03:30	83.2	83.2	88.0	67	71.1	0	0	---	0.00	29.859 
03:35	83.2	83.2	88.0	67	71.1	0	0	---	0.00	29.859 
03:40	83.0	83.0	87.6	67	70.9	0	0	---	0.00	29.859 
03:45	83.0	83.0	87.6	67	70.9	0	0	---	0.00	29.859 
03:50	82.8	82.8	87.2	67	70.7	0	0	---	0.00	29.859 
03:55	82.6	82.6	87.1	68	70.9	0	0	---	0.00	29.859 
04:00	82.6	82.6	87.1	68	70.9	0	0	---	0.00	29.857 
04:05	82.4	82.4	86.7	68	70.8	0	0	---	0.00	29.857 
04:10	82.0	82.0	86.0	68	70.4	0	0	---	0.00	29.857 
04:15	81.8	81.8	85.9	69	70.6	0	0	---	0.00	29.859 
04:20	81.6	81.6	85.5	69	70.4	0	0	---	0.00	29.859 
04:25	81.6	81.6	85.5	69	70.4	0	0	---	0.00	29.859 
04:30	81.4	81.4	85.1	69	70.2	0	0	---	0.00	29.855 
04:35	81.2	81.2	85.0	70	70.5	0	0	---	0.00	29.855 
04:40	81.1	81.1	84.8	70	70.4	0	0	---	0.00	29.855 
04:45	81.1	81.1	84.8	70	70.4	0	1	270	0.00	29.860 
04:50	81.2	81.2	85.0	70	70.5	0	1	270	0.00	29.860 
04:55	81.4	81.4	85.3	70	70.7	0	1	270	0.00	29.860 
05:00	81.4	81.4	85.1	69	70.2	0	1	270	0.00	29.868 
05:05	81.2	81.2	85.0	70	70.5	0	1	270	0.00	29.868 
05:10	81.2	81.2	85.0	70	70.5	0	1	270	0.00	29.868 
05:15	81.2	81.2	85.0	70	70.5	0	1	270	0.00	29.875 
05:20	81.1	81.1	84.8	70	70.4	0	1	270	0.00	29.875 
05:25	81.1	81.1	85.0	71	70.8	0	1	270	0.00	29.875 
05:30	81.1	81.1	85.0	71	70.8	0	1	270	0.00	29.875 
05:35	80.9	80.9	84.6	71	70.6	0	0	---	0.00	29.875 
05:40	80.9	80.9	84.6	71	70.6	0	1	270	0.00	29.875 
05:45	80.7	80.7	84.4	72	70.8	0	1	270	0.00	29.881 
05:50	80.7	80.7	84.4	72	70.8	0	1	270	0.00	29.881 
05:55	80.5	80.5	84.1	72	70.6	0	1	270	0.00	29.881 
06:00	80.5	80.5	84.2	73	71.0	0	1	270	0.00	29.887 
06:05	80.3	80.3	83.9	73	70.8	0	1	270	0.00	29.887 
06:10	80.3	80.3	83.9	73	70.8	0	1	270	0.00	29.887 
06:15	80.3	80.3	83.9	73	70.8	0	1	270	0.00	29.894 
06:20	80.3	80.3	84.0	74	71.2	0	1	270	0.00	29.894 
06:25	80.3	80.3	84.0	74	71.2	0	1	270	0.00	29.894 
06:30	80.3	80.3	84.0	74	71.2	0	1	270	0.00	29.894 
06:35	80.3	80.3	84.0	74	71.2	0	1	270	0.00	29.894 
06:40	80.3	80.3	84.0	74	71.2	0	1	270	0.00	29.894 
06:45	80.3	80.3	84.0	74	71.2	0	1	270	0.00	29.892 
06:50	80.3	80.3	84.0	74	71.2	0	1	270	0.00	29.892 
06:55	80.1	80.1	83.8	75	71.4	0	0	---	0.00	29.892 
07:00	80.1	80.1	83.8	75	71.4	0	1	270	0.00	29.891 
07:05	79.9	79.9	83.4	75	71.2	0	0	---	0.00	29.891 
07:10	79.9	79.9	83.5	76	71.6	0	0	---	0.00	29.891 
07:15	79.8	79.8	83.3	76	71.5	0	0	---	0.00	29.895 
07:20	79.8	79.8	83.4	77	71.9	0	0	---	0.00	29.895 
07:25	79.6	79.6	83.1	77	71.7	0	0	---	0.00	29.895 
07:30	79.6	79.6	83.1	77	71.7	0	0	---	0.00	29.899 
07:35	79.4	79.4	82.7	77	71.5	0	0	---	0.00	29.899 
07:40	79.4	79.4	82.8	78	71.9	0	0	---	0.00	29.899 
07:45	79.4	79.4	82.8	78	71.9	0	0	---	0.00	29.897 
07:50	79.6	79.6	83.2	78	72.1	0	0	---	0.00	29.897 
07:55	79.6	79.6	83.2	78	72.1	0	0	---	0.00	29.897 
08:00	79.8	79.8	83.6	78	72.3	0	0	---	0.00	29.897 
08:05	79.9	79.9	83.8	78	72.4	0	0	---	0.00	29.897 
08:10	80.1	80.1	84.0	77	72.2	0	0	---	0.00	29.897 
08:15	80.3	80.3	84.4	77	72.4	0	0	---	0.00	29.896 
08:20	80.7	80.7	85.1	76	72.4	0	0	---	0.00	29.896 
08:25	81.1	81.1	85.7	75	72.4	0	0	---	0.00	29.896 
08:30	81.4	81.4	86.3	75	72.7	0	0	---	0.00	29.903 
08:35	81.6	81.6	86.5	74	72.5	0	0	---	0.00	29.903 
08:40	82.2	82.2	87.5	73	72.7	0	0	---	0.00	29.903 
08:45	82.8	82.8	88.2	71	72.4	0	2	270	0.00	29.903 
08:50	83.4	83.4	88.9	69	72.1	0	1	270	0.00	29.903 
08:55	84.0	84.0	89.8	68	72.3	0	1	270	0.00	29.903 
09:00	84.3	84.3	90.5	68	72.6	0	1	270	0.00	29.900 
09:05	85.1	85.1	91.1	65	72.0	0	2	270	0.00	29.900 
09:10	86.1	86.1	92.4	63	72.0	1	3	270	0.00	29.900 
09:15	86.7	86.7	92.9	61	71.6	1	3	270	0.00	29.906 
09:20	87.4	87.4	93.9	60	71.8	0	1	270	0.00	29.906 
09:25	88.0	88.0	94.7	59	71.8	0	1	270	0.00	29.906 
09:30	88.6	88.6	95.0	57	71.4	0	1	270	0.00	29.911 
09:35	89.3	89.3	96.0	56	71.5	0	2	270	0.00	29.911 
09:40	90.1	90.1	96.7	54	71.2	0	3	270	0.00	29.911 
09:45	90.3	90.3	97.1	54	71.4	1	3	270	0.00	29.922 
09:50	90.5	90.5	97.5	54	71.5	1	2	270	0.00	29.922 
09:55	90.7	90.7	98.0	54	71.7	0	1	270	0.00	29.922 
10:00	91.0	91.0	98.6	54	72.0	0	2	270	0.00	29.923 
10:05	91.0	91.0	98.6	54	72.0	0	2	270	0.00	29.923 
10:10	91.0	91.0	97.5	52	70.9	0	2	270	0.00	29.923 
10:15	91.2	91.2	98.0	52	71.1	0	1	270	0.00	29.928 
10:20	91.4	91.4	98.4	52	71.3	1	3	270	0.00	29.928 
10:25	92.1	92.1	99.3	51	71.3	1	3	270	0.00	29.928 
10:30	91.8	91.8	99.2	52	71.6	1	4	68	0.00	29.924 
10:35	92.1	92.1	99.3	51	71.3	0	2	45	0.00	29.924 
10:40	92.1	92.1	99.9	52	71.9	0	2	45	0.00	29.924 
10:45	92.3	92.3	99.7	51	71.5	1	3	45	0.00	29.922 
10:50	92.3	92.3	99.7	51	71.5	1	3	112	0.00	29.922 
10:55	92.5	92.5	99.6	50	71.1	1	3	112	0.00	29.922 
11:00	92.7	92.7	100.0	50	71.3	0	1	112	0.00	29.924 
11:05	93.2	93.2	99.9	48	70.5	0	3	135	0.00	29.924 
11:10	93.6	93.6	100.2	47	70.3	1	2	135	0.00	29.924 
11:15	93.8	93.8	100.0	46	69.8	2	3	135	0.00	29.925 
11:20	93.4	93.4	99.8	47	70.1	1	4	270	0.00	29.925 
11:25	93.2	93.2	97.2	43	67.3	2	4	270	0.00	29.925 
11:30	93.2	93.2	97.2	43	67.3	1	3	270	0.00	29.925 
11:35	93.2	93.2	98.3	45	68.6	1	2	270	0.00	29.925 
11:40	93.2	93.2	98.3	45	68.6	1	2	270	0.00	29.925 
11:45	93.4	93.4	97.6	43	67.5	1	3	270	0.00	29.921 
11:50	93.8	93.8	98.3	43	67.9	2	5	270	0.00	29.921 
11:55	94.0	94.0	97.2	40	65.9	2	4	270	0.00	29.921 
12:00	94.3	94.3	97.7	40	66.2	1	4	270	0.00	29.917 
12:05	94.3	94.3	98.8	42	67.6	1	3	270	0.00	29.917 
12:10	94.5	94.5	98.6	41	67.1	2	4	315	0.00	29.917 
12:15	94.7	94.7	99.0	41	67.3	1	4	270	0.00	29.908 
12:20	94.9	94.9	98.3	39	66.0	2	5	270	0.00	29.908 
12:25	95.1	95.1	98.6	39	66.2	1	3	292	0.00	29.908 
12:30	95.4	95.4	99.2	39	66.5	2	4	292	0.00	29.907 
12:35	95.1	95.1	98.6	39	66.2	2	4	292	0.00	29.907 
12:40	95.1	95.1	99.2	40	66.9	1	4	270	0.00	29.907 
12:45	94.9	94.9	100.5	43	68.8	2	5	270	0.00	29.904 
12:50	94.9	94.9	99.3	41	67.5	2	4	270	0.00	29.904 
12:55	95.1	95.1	99.7	41	67.6	2	4	270	0.00	29.904 
13:00	95.9	95.9	100.1	39	66.9	1	3	270	0.00	29.897 
13:05	96.3	96.3	98.7	35	64.1	2	5	270	0.00	29.897 
13:10	96.8	96.8	98.5	33	62.9	3	5	270	0.00	29.897 
13:15	96.6	96.6	98.7	34	63.6	3	6	292	0.00	29.896 
13:20	96.6	96.6	98.2	33	62.7	3	6	270	0.00	29.896 
13:25	96.3	96.3	98.2	34	63.3	3	7	315	0.00	29.896 
13:30	96.3	96.3	99.2	36	64.9	2	5	292	0.00	29.895 
13:35	96.8	96.8	99.5	35	64.6	2	4	248	0.00	29.895 
13:40	96.3	96.3	98.7	35	64.1	3	5	315	0.00	29.895 
13:45	96.3	96.3	99.7	37	65.7	1	3	315	0.00	29.895 
13:50	97.1	97.1	100.1	35	64.8	2	4	315	0.00	29.895 
13:55	97.3	97.3	100.4	35	65.0	2	4	270	0.00	29.895 
14:00	97.3	97.3	100.4	35	65.0	3	5	270	0.00	29.891 
14:05	97.5	97.5	99.7	33	63.5	2	5	270	0.00	29.891 
14:10	97.3	97.3	99.9	34	64.2	3	6	270	0.00	29.891 
14:15	97.8	97.8	100.2	33	63.8	2	4	270	0.00	29.884 
14:20	97.8	97.8	100.2	33	63.8	2	6	270	0.00	29.884 
14:25	97.5	97.5	100.8	35	65.2	2	4	270	0.00	29.884 
14:30	97.5	97.5	100.2	34	64.3	1	3	270	0.00	29.885 
14:35	96.8	96.8	99.0	34	63.7	1	4	315	0.00	29.885 
14:40	96.8	96.8	98.5	33	62.9	2	6	315	0.00	29.885 
14:45	96.8	96.8	99.0	34	63.7	1	4	315	0.00	29.877 
14:50	97.1	97.1	99.5	34	64.0	1	3	315	0.00	29.877 
14:55	97.5	97.5	99.2	32	62.6	2	5	270	0.00	29.877 
15:00	98.0	98.0	100.0	32	63.0	1	4	292	0.00	29.876 
15:05	98.7	98.7	101.2	32	63.7	1	3	292	0.00	29.876 
15:10	98.2	98.2	99.8	31	62.3	2	4	270	0.00	29.876 
15:15	98.0	98.0	100.6	33	63.9	2	5	270	0.00	29.872 
15:20	97.8	97.8	100.8	34	64.6	1	3	270	0.00	29.872 
15:25	98.2	98.2	100.9	33	64.1	1	5	270	0.00	29.872 
15:30	98.5	98.5	100.3	31	62.6	2	5	270	0.00	29.860 
15:35	99.0	99.0	100.6	30	62.1	2	6	315	0.00	29.860 
15:40	99.0	99.0	101.2	31	63.0	2	5	292	0.00	29.860 
15:45	99.0	99.0	101.2	31	63.0	3	5	270	0.00	29.859 
15:50	98.5	98.5	100.3	31	62.6	2	5	292	0.00	29.859 
15:55	98.7	98.7	100.7	31	62.7	3	6	270	0.00	29.859 
16:00	97.8	97.8	99.7	32	62.9	3	5	292	0.00	29.853 
16:05	97.1	97.1	99.0	33	63.1	2	4	270	0.00	29.853 
16:10	97.1	97.1	99.0	33	63.1	1	3	270	0.00	29.853 
16:15	98.0	98.0	100.6	33	63.9	1	4	270	0.00	29.847 
16:20	98.7	98.7	101.2	32	63.7	2	5	315	0.00	29.847 
16:25	99.2	99.2	101.5	31	63.2	2	3	292	0.00	29.847 
16:30	99.2	99.2	101.5	31	63.2	1	3	292	0.00	29.847 
16:35	99.2	99.2	101.5	31	63.2	2	5	292	0.00	29.847 
16:40	99.4	99.4	101.9	31	63.3	2	6	292	0.00	29.847 
16:45	99.7	99.7	102.4	31	63.6	2	4	292	0.00	29.848 
16:50	99.9	99.9	102.1	30	62.8	2	5	292	0.00	29.848 
16:55	100.2	100.2	102.7	30	63.1	2	4	270	0.00	29.848 
17:00	99.7	99.7	102.4	31	63.6	2	5	270	0.00	29.845 
17:05	99.4	99.4	100.7	29	61.5	2	6	270	0.00	29.845 
17:10	99.0	99.0	101.2	31	63.0	3	6	270	0.00	29.845 
17:15	98.7	98.7	100.7	31	62.7	2	5	315	0.00	29.851 
17:20	98.2	98.2	99.8	31	62.3	2	5	270	0.00	29.851 
17:25	98.0	98.0	99.5	31	62.1	1	4	292	0.00	29.851 
17:30	98.0	98.0	99.5	31	62.1	2	4	292	0.00	29.859 
17:35	97.8	97.8	99.7	32	62.9	2	4	292	0.00	29.859 
17:40	97.3	97.3	98.8	32	62.4	1	3	315	0.00	29.859 
17:45	97.3	97.3	99.4	33	63.3	0	2	315	0.00	29.850 
17:50	97.5	97.5	99.2	32	62.6	2	4	315	0.00	29.850 
17:55	97.3	97.3	98.8	32	62.4	1	3	270	0.00	29.850 
18:00	97.1	97.1	98.5	32	62.3	0	1	270	0.00	29.847 
18:05	96.8	96.8	98.5	33	62.9	0	1	270	0.00	29.847 
18:10	96.3	96.3	98.2	34	63.3	0	1	270	0.00	29.847 
18:15	95.9	95.9	99.0	37	65.4	2	5	270	0.00	29.851 
18:20	90.7	90.7	95.0	48	68.3	5	10	270	0.00	29.851 
18:25	85.5	85.5	90.5	61	70.5	4	6	270	0.00	29.851 
18:30	82.4	82.4	84.2	56	65.1	5	9	270	0.00	29.893 
18:35	80.7	80.7	82.5	59	65.0	5	10	270	0.00	29.893 
18:40	79.9	79.9	81.4	57	63.3	4	10	248	0.00	29.893 
18:45	80.3	80.3	81.9	58	64.2	2	7	270	0.00	29.887 
18:50	80.7	80.7	82.4	58	64.5	1	4	270	0.00	29.887 
18:55	81.4	81.4	83.3	58	65.2	3	9	90	0.00	29.887 
19:00	82.6	82.6	83.4	50	62.0	5	12	90	0.00	29.899 
19:05	84.0	84.0	84.7	48	62.2	3	8	90	0.00	29.899 
19:10	84.9	84.9	85.4	46	61.8	3	6	90	0.00	29.899 
19:15	85.9	85.9	86.4	45	62.1	3	6	90	0.00	29.896 
19:20	86.5	86.5	87.8	47	63.8	4	10	90	0.00	29.896 
19:25	86.7	86.7	88.6	49	65.2	3	6	90	0.00	29.896 
19:30	86.1	86.1	89.9	56	68.5	3	9	90	0.01	29.902 
19:35	85.3	85.3	89.5	59	69.3	2	4	90	0.00	29.902 
19:40	84.5	84.5	88.7	61	69.5	1	5	90	0.00	29.902 
19:45	83.8	83.8	87.7	62	69.4	2	5	90	0.00	29.894 
19:50	83.6	83.6	87.4	62	69.2	2	4	90	0.00	29.894 
19:55	83.4	83.4	86.8	61	68.5	2	4	90	0.00	29.894 
20:00	83.6	83.6	86.9	60	68.2	2	5	90	0.00	29.884 
20:05	83.8	83.8	86.9	59	67.9	1	2	90	0.00	29.884 
20:10	84.1	84.1	87.2	58	67.7	2	5	68	0.00	29.884 
20:15	84.3	84.3	87.5	58	67.9	2	4	68	0.00	29.885 
20:20	84.3	84.3	87.5	58	67.9	1	3	68	0.00	29.885 
20:25	84.3	84.3	87.8	59	68.4	1	3	90	0.00	29.885 
20:30	84.0	84.0	87.5	60	68.6	1	4	90	0.00	29.900 
20:35	83.6	83.6	87.1	61	68.7	1	3	338	0.00	29.900 
20:40	83.4	83.4	87.0	62	69.0	1	3	112	0.00	29.900 
20:45	83.0	83.0	86.6	63	69.1	1	3	112	0.00	29.900 
20:50	82.8	82.8	86.5	64	69.3	1	2	112	0.00	29.900 
20:55	82.4	82.4	85.8	64	69.0	1	2	112	0.00	29.900 
21:00	82.2	82.2	85.5	64	68.8	0	1	112	0.00	29.899 
21:05	82.2	82.2	85.5	64	68.8	0	2	112	0.00	29.899 
21:10	82.0	82.0	85.2	64	68.6	0	2	112	0.00	29.899 
21:15	81.8	81.8	84.9	64	68.4	0	1	112	0.00	29.895 
21:20	81.6	81.6	84.6	64	68.2	0	2	112	0.00	29.895 
21:25	81.6	81.6	84.4	63	67.8	1	2	112	0.00	29.895 
21:30	81.4	81.4	84.1	63	67.6	0	1	112	0.00	29.892 
21:35	81.4	81.4	84.1	63	67.6	0	1	112	0.00	29.892 
21:40	81.4	81.4	84.3	64	68.0	0	1	112	0.00	29.892 
21:45	81.2	81.2	84.1	65	68.3	0	1	112	0.00	29.894 
21:50	81.1	81.1	84.0	65	68.2	0	1	112	0.00	29.894 
21:55	80.7	80.7	83.5	66	68.3	0	0	---	0.00	29.894 
22:00	80.7	80.7	83.5	66	68.3	0	1	112	0.00	29.894 
22:05	80.5	80.5	83.3	67	68.5	0	0	---	0.00	29.894 
22:10	80.3	80.3	83.2	68	68.8	0	0	---	0.00	29.894 
22:15	79.9	79.9	82.7	69	68.8	0	0	---	0.00	29.893 
22:20	79.6	79.6	82.2	69	68.5	0	0	---	0.00	29.893 
22:25	79.4	79.4	81.9	69	68.3	0	0	---	0.00	29.893 
22:30	79.2	79.2	81.7	70	68.5	0	0	---	0.00	29.897 
22:35	79.0	79.0	81.6	72	69.2	0	0	---	0.00	29.897 
22:40	78.8	78.8	81.3	72	69.0	0	0	---	0.00	29.897 
22:45	78.6	78.6	81.0	73	69.2	0	0	---	0.00	29.897 
22:50	78.5	78.5	80.9	73	69.1	0	0	---	0.00	29.897 
22:55	78.3	78.3	80.6	73	68.9	0	0	---	0.00	29.897 
23:00	78.1	78.1	80.3	74	69.1	0	0	---	0.00	29.897 
23:05	77.9	77.9	80.0	74	68.9	0	0	---	0.00	29.897 
23:10	77.9	77.9	80.0	74	68.9	0	0	---	0.00	29.897 
23:15	77.9	77.9	80.0	74	68.9	0	0	---	0.00	29.898 
23:20	77.7	77.7	79.7	74	68.7	0	0	---	0.00	29.898 
23:25	77.7	77.7	79.7	74	68.7	0	0	---	0.00	29.898 
23:30	77.9	77.9	80.0	74	68.9	0	0	---	0.00	29.897 
23:35	77.7	77.7	79.7	74	68.7	0	0	---	0.00	29.897 
23:40	77.7	77.7	79.7	74	68.7	0	0	---	0.00	29.897 
23:45	77.7	77.7	79.7	74	68.7	0	0	---	0.00	29.896 
23:50	77.6	77.6	79.6	74	68.6	0	0	---	0.00	29.896 
23:55	77.6	77.6	79.6	75	69.0	0	0	---	0.00	29.896 

CoCoRaHS
IN-AL-39
A2 Web Hosting
Creative Commons License
GoDaddy
search engine by freefind advanced

loaded 2018-11-20 03:08:08 • last modified 2010-11-18 10:43:29
Privacy PolicyDisclaimer
• wx.awcolley.com is powered by PmWiki v.2002016 •
• all content (unless otherwise noted) © 2018 A W Colley